Willow, Pennsylvania
Current Conditions -  °F | °C
As of 4:53 PM on Sunday 25 Jan 2015 (Local Time) from KLNS Reporting Station
Overcast Overcast  
Wind Chill: 39°   Ceiling: 7000
Heat Index: 39°   Visibility: 8mi
Dew Point: 31°   Wind: 3mph
Humidity: 73%   Direction: 230°SW
Pressure: 29.82"   Gusts: NA
Location:  39.9601°N, 76.2683°W
Report Text: KLNS 252153Z 23003KT 8SM BKN070 OVC085 04/M01 A2982 RMK AO2 SLP101 T00391006
Loading
Personal Weather Stations






























Interactive Weather Map New forecast layout! Learn more

10-Day Weather Forecast

Advertisements
Track Severe Weather on mobile